Time;durP1;ratioP1;P1;durP2;ratioP2;P2;SDS_P1;SDS_P2;PMS_P1;PMS_P2;Temp;Humidity;BMP_temperature;BMP_pressure;BME280_temperature;BME280_humidity;BME280_pressure;Samples;Min_cycle;Max_cycle;Signal;HPM_P1;HPM_P2
2022/03/02 00:01:09;;;;;;;3.13;2.67;;;;;;;;;;5061828;28;20090;-53
2022/03/02 00:03:34;;;;;;;3.58;2.78;;;;;;;;;;5051240;28;20037;-53
2022/03/02 00:06:00;;;;;;;5.00;3.75;;;;;;;;;;5074163;28;20099;-55
2022/03/02 00:08:25;;;;;;;5.22;3.72;;;;;;;;;;5057230;28;20036;-55
2022/03/02 00:10:50;;;;;;;3.60;3.20;;;;;;;;;;5036239;28;20051;-54
2022/03/02 00:13:15;;;;;;;3.42;2.67;;;;;;;;;;5052554;28;20504;-53
2022/03/02 00:15:40;;;;;;;5.07;3.17;;;;;;;;;;5066038;28;20036;-52
2022/03/02 00:18:06;;;;;;;3.85;3.13;;;;;;;;;;5074084;28;20259;-55
2022/03/02 00:20:31;;;;;;;4.30;2.95;;;;;;;;;;5061851;28;20074;-54
2022/03/02 00:22:56;;;;;;;3.72;2.78;;;;;;;;;;5043045;28;20022;-54
2022/03/02 00:25:21;;;;;;;3.50;3.00;;;;;;;;;;5045194;28;20033;-56
2022/03/02 00:27:47;;;;;;;4.50;3.05;;;;;;;;;;5033650;28;20084;-55
2022/03/02 00:30:12;;;;;;;3.83;3.08;;;;;;;;;;5047015;28;20496;-56
2022/03/02 00:32:37;;;;;;;3.17;2.88;;;;;;;;;;5049339;28;20388;-56
2022/03/02 00:35:03;;;;;;;5.57;3.35;;;;;;;;;;5040212;28;20477;-55
2022/03/02 00:37:28;;;;;;;3.65;2.88;;;;;;;;;;5055175;28;20111;-56
2022/03/02 00:39:53;;;;;;;3.83;3.17;;;;;;;;;;5055472;28;20033;-54
2022/03/02 00:42:18;;;;;;;4.90;3.85;;;;;;;;;;5046905;28;20068;-56
2022/03/02 00:44:44;;;;;;;2.88;2.63;;;;;;;;;;5053878;28;20055;-52
2022/03/02 00:47:09;;;;;;;3.83;2.95;;;;;;;;;;5073417;28;20032;-55
2022/03/02 00:49:35;;;;;;;3.83;3.13;;;;;;;;;;5059741;28;20481;-56
2022/03/02 00:52:02;;;;;;;6.05;3.60;;;;;;;;;;5053414;28;20048;-52
2022/03/02 00:54:28;;;;;;;2.83;2.53;;;;;;;;;;5044002;28;20139;-54
2022/03/02 00:56:53;;;;;;;3.78;2.95;;;;;;;;;;5041316;28;20056;-55
2022/03/02 00:59:18;;;;;;;3.45;2.75;;;;;;;;;;5039637;28;20031;-53
2022/03/02 01:01:43;;;;;;;4.57;2.92;;;;;;;;;;5065032;28;20021;-54
2022/03/02 01:04:09;;;;;;;3.15;2.65;;;;;;;;;;5038832;28;20068;-55
2022/03/02 01:06:34;;;;;;;3.10;2.70;;;;;;;;;;5062976;28;20444;-53
2022/03/02 01:08:59;;;;;;;3.13;2.22;;;;;;;;;;5052649;28;20036;-54
2022/03/02 01:11:24;;;;;;;5.32;2.97;;;;;;;;;;5043155;28;20014;-51
2022/03/02 01:13:50;;;;;;;3.92;3.13;;;;;;;;;;5053235;28;20037;-55
2022/03/02 01:16:15;;;;;;;3.00;2.13;;;;;;;;;;5066689;28;20489;-53
2022/03/02 01:18:40;;;;;;;2.67;2.20;;;;;;;;;;5072496;28;20282;-54
2022/03/02 01:21:05;;;;;;;3.22;2.40;;;;;;;;;;5061806;28;20029;-55
2022/03/02 01:23:31;;;;;;;3.45;2.92;;;;;;;;;;5052147;28;20025;-54
2022/03/02 01:25:56;;;;;;;2.90;2.33;;;;;;;;;;5043549;28;20394;-56
2022/03/02 01:28:21;;;;;;;3.80;3.30;;;;;;;;;;5045129;28;20177;-54
2022/03/02 01:30:47;;;;;;;3.35;2.67;;;;;;;;;;5053148;28;20406;-55
2022/03/02 01:33:12;;;;;;;3.08;2.65;;;;;;;;;;5047081;28;20029;-55
2022/03/02 01:35:37;;;;;;;2.55;2.35;;;;;;;;;;5054842;28;20029;-55
2022/03/02 01:38:03;;;;;;;2.70;2.20;;;;;;;;;;5065468;28;20108;-56
2022/03/02 01:40:28;;;;;;;2.50;2.30;;;;;;;;;;5067131;28;20500;-55
2022/03/02 01:42:53;;;;;;;3.88;3.13;;;;;;;;;;5054906;28;20052;-56
2022/03/02 01:45:21;;;;;;;2.90;2.50;;;;;;;;;;5052524;28;20033;-52
2022/03/02 01:47:46;;;;;;;3.55;3.03;;;;;;;;;;5053497;28;20759;-56
2022/03/02 01:50:13;;;;;;;3.53;2.97;;;;;;;;;;5052089;28;20102;-55
2022/03/02 01:52:38;;;;;;;5.38;2.75;;;;;;;;;;5060802;28;20082;-53
2022/03/02 01:55:05;;;;;;;4.28;3.15;;;;;;;;;;5033986;28;20037;-55
2022/03/02 01:57:30;;;;;;;3.67;2.20;;;;;;;;;;5058793;28;20025;-54
2022/03/02 01:59:55;;;;;;;2.72;2.53;;;;;;;;;;5049955;28;20025;-55
2022/03/02 02:02:20;;;;;;;2.58;2.20;;;;;;;;;;5051410;28;20024;-56
2022/03/02 02:04:46;;;;;;;3.47;2.50;;;;;;;;;;5059766;28;20057;-57
2022/03/02 02:07:11;;;;;;;2.83;2.28;;;;;;;;;;5055991;28;20295;-54
2022/03/02 02:09:36;;;;;;;2.67;2.22;;;;;;;;;;5056682;28;20028;-55
2022/03/02 02:12:01;;;;;;;4.00;2.92;;;;;;;;;;5067701;28;20537;-53
2022/03/02 02:14:27;;;;;;;3.35;2.53;;;;;;;;;;5057686;28;20538;-54
2022/03/02 02:16:52;;;;;;;3.38;2.50;;;;;;;;;;5052205;28;20024;-53
2022/03/02 02:19:17;;;;;;;3.75;2.97;;;;;;;;;;5051524;28;20037;-55
2022/03/02 02:21:45;;;;;;;3.92;3.25;;;;;;;;;;5058643;28;20028;-53
2022/03/02 02:24:11;;;;;;;2.65;1.88;;;;;;;;;;5045526;28;20477;-55
2022/03/02 02:26:36;;;;;;;2.40;2.20;;;;;;;;;;5032932;28;20029;-54
2022/03/02 02:29:01;;;;;;;3.78;2.22;;;;;;;;;;5060309;28;20016;-56
2022/03/02 02:31:26;;;;;;;3.05;2.20;;;;;;;;;;5057867;28;20044;-52
2022/03/02 02:33:52;;;;;;;3.03;2.72;;;;;;;;;;5035277;28;20053;-52
2022/03/02 02:36:18;;;;;;;3.50;2.70;;;;;;;;;;5052153;28;20033;-54
2022/03/02 02:38:43;;;;;;;3.75;3.30;;;;;;;;;;5066494;28;20059;-55
2022/03/02 02:41:09;;;;;;;3.00;2.45;;;;;;;;;;5024776;28;20049;-56
2022/03/02 02:43:34;;;;;;;8.00;2.97;;;;;;;;;;5054840;28;20099;-55
2022/03/02 02:45:59;;;;;;;2.95;2.50;;;;;;;;;;5057067;28;20025;-56
2022/03/02 02:48:24;;;;;;;2.13;1.92;;;;;;;;;;5070110;28;20032;-56
2022/03/02 02:50:50;;;;;;;2.72;2.47;;;;;;;;;;5057710;28;20067;-53
2022/03/02 02:53:16;;;;;;;2.55;1.98;;;;;;;;;;5046190;28;20364;-54
2022/03/02 02:55:42;;;;;;;3.58;2.42;;;;;;;;;;5039871;28;20100;-52
2022/03/02 02:58:07;;;;;;;3.00;2.35;;;;;;;;;;5048050;28;20029;-55
2022/03/02 03:00:34;;;;;;;2.17;1.98;;;;;;;;;;5050842;28;20444;-56
2022/03/02 03:03:00;;;;;;;2.88;2.40;;;;;;;;;;5063063;28;20024;-55
2022/03/02 03:05:26;;;;;;;2.58;2.28;;;;;;;;;;5073230;28;20385;-53
2022/03/02 03:07:53;;;;;;;2.40;2.20;;;;;;;;;;5068439;28;20074;-53
2022/03/02 03:10:18;;;;;;;2.38;1.90;;;;;;;;;;5054499;28;20025;-53
2022/03/02 03:12:45;;;;;;;2.35;1.63;;;;;;;;;;5055258;28;20111;-54
2022/03/02 03:15:11;;;;;;;3.28;2.20;;;;;;;;;;5048979;28;20385;-53
2022/03/02 03:17:37;;;;;;;3.20;2.53;;;;;;;;;;5042279;28;20025;-53
2022/03/02 03:20:03;;;;;;;3.05;2.55;;;;;;;;;;5054247;28;20036;-51
2022/03/02 03:22:28;;;;;;;2.60;2.28;;;;;;;;;;5055291;28;20024;-53
2022/03/02 03:24:53;;;;;;;2.47;2.03;;;;;;;;;;5038252;28;20111;-54
2022/03/02 03:27:18;;;;;;;3.38;2.83;;;;;;;;;;5054647;28;20016;-54
2022/03/02 03:29:44;;;;;;;2.33;1.90;;;;;;;;;;5056482;28;20483;-56
2022/03/02 03:32:09;;;;;;;2.80;2.30;;;;;;;;;;5054626;28;20025;-55
2022/03/02 03:34:34;;;;;;;2.13;1.92;;;;;;;;;;5075110;28;20025;-56
2022/03/02 03:36:59;;;;;;;2.75;2.15;;;;;;;;;;5074960;28;20362;-55
2022/03/02 03:39:24;;;;;;;2.28;2.08;;;;;;;;;;5062052;28;20033;-56
2022/03/02 03:41:50;;;;;;;3.40;2.60;;;;;;;;;;5061883;28;20059;-54
2022/03/02 03:44:15;;;;;;;2.28;1.85;;;;;;;;;;5071236;28;20033;-57
2022/03/02 03:46:40;;;;;;;2.78;2.13;;;;;;;;;;5061924;28;20024;-55
2022/03/02 03:49:05;;;;;;;2.72;2.40;;;;;;;;;;5073659;28;20028;-55
2022/03/02 03:51:31;;;;;;;3.50;2.95;;;;;;;;;;5072901;28;20025;-56
2022/03/02 03:53:56;;;;;;;3.72;2.63;;;;;;;;;;5045970;28;20028;-54
2022/03/02 03:56:21;;;;;;;3.67;2.50;;;;;;;;;;5068083;28;20542;-55
2022/03/02 03:58:47;;;;;;;3.63;2.70;;;;;;;;;;5064641;28;20071;-55
2022/03/02 04:01:12;;;;;;;3.42;2.85;;;;;;;;;;5063908;28;20481;-53
2022/03/02 04:03:37;;;;;;;2.83;2.40;;;;;;;;;;5055562;28;20135;-55
2022/03/02 04:06:03;;;;;;;2.40;2.20;;;;;;;;;;5066327;28;20385;-55
2022/03/02 04:08:28;;;;;;;3.28;2.60;;;;;;;;;;5065702;28;20033;-56
2022/03/02 04:10:53;;;;;;;3.13;2.08;;;;;;;;;;5057187;28;20029;-55
2022/03/02 04:13:19;;;;;;;2.25;2.05;;;;;;;;;;5073756;28;20489;-56
2022/03/02 04:15:44;;;;;;;4.10;2.33;;;;;;;;;;5074330;28;20024;-54
2022/03/02 04:18:09;;;;;;;3.60;2.30;;;;;;;;;;5071910;28;20025;-57
2022/03/02 04:20:35;;;;;;;3.55;2.88;;;;;;;;;;5065016;28;20378;-55
2022/03/02 04:23:00;;;;;;;2.75;2.20;;;;;;;;;;5052985;28;20029;-55
2022/03/02 04:25:25;;;;;;;2.40;2.20;;;;;;;;;;5037505;28;20029;-55
2022/03/02 04:27:51;;;;;;;3.00;1.67;;;;;;;;;;5049312;28;20033;-56
2022/03/02 04:30:16;;;;;;;2.40;2.20;;;;;;;;;;5070362;28;20032;-55
2022/03/02 04:32:42;;;;;;;2.00;1.83;;;;;;;;;;5056349;28;20032;-56
2022/03/02 04:35:07;;;;;;;2.38;1.83;;;;;;;;;;5070016;28;20024;-56
2022/03/02 04:37:33;;;;;;;2.58;2.38;;;;;;;;;;5074184;28;20380;-55
2022/03/02 04:39:58;;;;;;;3.20;2.45;;;;;;;;;;5058118;28;20526;-56
2022/03/02 04:42:23;;;;;;;2.58;2.22;;;;;;;;;;5035123;28;20033;-55
2022/03/02 04:44:48;;;;;;;2.72;1.70;;;;;;;;;;5065578;28;20396;-55
2022/03/02 04:47:13;;;;;;;2.05;1.90;;;;;;;;;;5073762;28;20461;-55
2022/03/02 04:49:39;;;;;;;3.47;1.90;;;;;;;;;;5068756;28;20017;-53
2022/03/02 04:52:04;;;;;;;2.97;2.10;;;;;;;;;;5072940;28;20068;-55
2022/03/02 04:57:13;;;;;;;2.05;1.30;;;;;;;;;;5048137;28;20035;-55
2022/03/02 04:59:38;;;;;;;2.60;2.05;;;;;;;;;;5050391;28;20026;-53
2022/03/02 05:02:04;;;;;;;2.47;2.00;;;;;;;;;;5048831;28;20022;-53
2022/03/02 05:04:29;;;;;;;1.60;1.50;;;;;;;;;;5046791;28;20041;-55
2022/03/02 05:06:54;;;;;;;2.20;1.92;;;;;;;;;;5052713;28;20025;-53
2022/03/02 05:09:20;;;;;;;2.28;2.05;;;;;;;;;;5054537;28;20029;-52
2022/03/02 05:11:45;;;;;;;3.00;1.98;;;;;;;;;;5038950;28;20036;-55
2022/03/02 05:14:10;;;;;;;2.05;1.85;;;;;;;;;;5043593;28;20025;-54
2022/03/02 05:16:35;;;;;;;2.00;1.30;;;;;;;;;;5053720;28;20371;-53
2022/03/02 05:19:00;;;;;;;2.30;1.70;;;;;;;;;;5058957;28;20028;-53
2022/03/02 05:21:26;;;;;;;3.20;2.05;;;;;;;;;;5058479;28;20036;-55
2022/03/02 05:23:51;;;;;;;2.15;1.70;;;;;;;;;;5048819;28;20048;-56
2022/03/02 05:26:16;;;;;;;2.13;1.77;;;;;;;;;;5044520;28;20091;-56
2022/03/02 05:28:41;;;;;;;2.60;1.90;;;;;;;;;;5047736;28;20402;-56
2022/03/02 05:31:06;;;;;;;2.03;1.80;;;;;;;;;;5044778;28;20544;-55
2022/03/02 05:33:32;;;;;;;2.15;1.50;;;;;;;;;;5029346;28;20382;-54
2022/03/02 05:35:57;;;;;;;1.40;1.23;;;;;;;;;;5053400;28;20507;-53
2022/03/02 05:38:22;;;;;;;1.73;1.60;;;;;;;;;;5070328;28;20059;-55
2022/03/02 05:40:47;;;;;;;2.97;2.08;;;;;;;;;;5065577;28;20025;-52
2022/03/02 05:43:12;;;;;;;2.33;2.08;;;;;;;;;;5052696;28;20039;-54
2022/03/02 05:45:38;;;;;;;2.33;1.98;;;;;;;;;;5050697;28;20063;-54
2022/03/02 05:48:03;;;;;;;1.40;1.27;;;;;;;;;;5046300;28;20108;-54
2022/03/02 05:50:28;;;;;;;2.47;1.08;;;;;;;;;;5058180;28;20393;-52
2022/03/02 05:52:54;;;;;;;2.38;1.60;;;;;;;;;;5048922;28;20085;-55
2022/03/02 05:55:19;;;;;;;2.70;2.05;;;;;;;;;;5047805;28;20033;-52
2022/03/02 05:57:44;;;;;;;1.90;1.40;;;;;;;;;;5050553;28;20028;-54
2022/03/02 06:00:10;;;;;;;4.63;2.40;;;;;;;;;;5051322;28;20036;-54
2022/03/02 06:02:35;;;;;;;2.38;1.80;;;;;;;;;;5051102;28;20048;-53
2022/03/02 06:05:00;;;;;;;3.25;1.73;;;;;;;;;;5040493;28;20042;-53
2022/03/02 06:07:25;;;;;;;2.38;1.58;;;;;;;;;;5066478;28;20032;-53
2022/03/02 06:09:51;;;;;;;3.10;1.65;;;;;;;;;;5050918;28;20123;-55
2022/03/02 06:12:16;;;;;;;2.65;1.95;;;;;;;;;;5059010;28;20029;-52
2022/03/02 06:14:42;;;;;;;2.63;1.80;;;;;;;;;;5071080;28;20107;-55
2022/03/02 06:17:09;;;;;;;3.15;2.08;;;;;;;;;;5071268;28;20021;-52
2022/03/02 06:19:34;;;;;;;3.08;1.77;;;;;;;;;;5054092;28;20021;-55
2022/03/02 06:22:01;;;;;;;2.05;1.52;;;;;;;;;;5050752;28;20107;-52
2022/03/02 06:24:27;;;;;;;3.17;1.60;;;;;;;;;;5019400;28;20021;-56
2022/03/02 06:26:52;;;;;;;2.50;1.73;;;;;;;;;;5051769;28;20028;-55
2022/03/02 06:29:17;;;;;;;4.22;2.25;;;;;;;;;;5051268;28;20028;-52
2022/03/02 06:31:42;;;;;;;4.70;2.60;;;;;;;;;;5050969;28;20025;-53
2022/03/02 06:34:07;;;;;;;4.30;2.63;;;;;;;;;;5064216;28;20542;-56
2022/03/02 06:36:33;;;;;;;5.55;2.90;;;;;;;;;;5045206;28;20028;-56
2022/03/02 06:38:58;;;;;;;2.65;2.40;;;;;;;;;;5051206;28;20231;-54
2022/03/02 06:41:38;;;;;;;9.02;2.67;;;;;;;;;;5049067;28;20025;-54
2022/03/02 06:44:05;;;;;;;5.57;2.58;;;;;;;;;;5051646;28;20021;-55
2022/03/02 06:46:47;;;;;;;2.80;2.30;;;;;;;;;;5051892;28;20017;-53
2022/03/02 06:49:22;;;;;;;2.72;2.20;;;;;;;;;;5050581;28;20488;-54
2022/03/02 06:51:47;;;;;;;3.95;2.38;;;;;;;;;;5051278;28;20075;-56
2022/03/02 06:54:14;;;;;;;2.38;2.00;;;;;;;;;;5042392;28;20449;-52
2022/03/02 06:56:48;;;;;;;2.85;2.20;;;;;;;;;;5051186;28;20048;-52
2022/03/02 06:59:16;;;;;;;3.83;2.65;;;;;;;;;;5050838;28;20017;-55
2022/03/02 07:01:43;;;;;;;3.42;2.40;;;;;;;;;;5050597;28;20021;-56
2022/03/02 07:04:12;;;;;;;3.55;2.45;;;;;;;;;;5051051;28;20532;-56
2022/03/02 07:06:38;;;;;;;2.70;2.45;;;;;;;;;;5050360;28;20520;-52
2022/03/02 07:09:03;;;;;;;2.45;1.80;;;;;;;;;;5051204;28;20021;-54
2022/03/02 07:11:31;;;;;;;3.67;2.95;;;;;;;;;;5049344;28;20021;-55
2022/03/02 07:13:57;;;;;;;5.95;2.20;;;;;;;;;;5033117;28;20428;-56
2022/03/02 07:16:22;;;;;;;3.75;2.22;;;;;;;;;;5045176;28;20025;-54
2022/03/02 07:18:47;;;;;;;2.88;2.17;;;;;;;;;;5051715;28;20033;-57
2022/03/02 07:21:13;;;;;;;2.53;1.83;;;;;;;;;;5036731;28;20049;-56
2022/03/02 07:23:45;;;;;;;3.80;2.53;;;;;;;;;;5049969;28;20052;-56
2022/03/02 07:26:11;;;;;;;4.18;2.15;;;;;;;;;;5050551;28;20504;-56
2022/03/02 07:28:37;;;;;;;3.80;2.38;;;;;;;;;;5052356;28;20017;-57
2022/03/02 07:31:03;;;;;;;4.63;2.70;;;;;;;;;;5065687;28;20087;-57
2022/03/02 07:33:30;;;;;;;4.05;2.55;;;;;;;;;;5037961;28;20037;-56
2022/03/02 07:35:56;;;;;;;3.05;2.28;;;;;;;;;;5055741;28;20037;-56
2022/03/02 07:38:22;;;;;;;3.05;2.10;;;;;;;;;;5068669;28;20035;-55
2022/03/02 07:40:48;;;;;;;5.30;2.90;;;;;;;;;;5049330;28;20544;-56
2022/03/02 07:43:14;;;;;;;4.28;2.58;;;;;;;;;;5048635;28;20033;-55
2022/03/02 07:45:39;;;;;;;4.03;2.72;;;;;;;;;;5048797;28;20025;-57
2022/03/02 07:48:04;;;;;;;4.00;2.38;;;;;;;;;;5046235;28;20021;-54
2022/03/02 07:50:30;;;;;;;3.08;2.20;;;;;;;;;;5041641;28;20025;-53
2022/03/02 07:52:57;;;;;;;4.70;3.00;;;;;;;;;;5025218;28;20052;-55
2022/03/02 07:55:23;;;;;;;4.10;2.50;;;;;;;;;;5038669;28;20120;-54
2022/03/02 07:57:50;;;;;;;2.95;2.40;;;;;;;;;;5038584;28;20116;-56
2022/03/02 08:00:16;;;;;;;3.20;2.60;;;;;;;;;;5036064;28;20072;-55
2022/03/02 08:02:41;;;;;;;4.35;2.53;;;;;;;;;;5040723;28;20494;-56
2022/03/02 08:05:07;;;;;;;4.18;2.50;;;;;;;;;;5040046;28;20045;-55
2022/03/02 08:07:34;;;;;;;4.00;2.88;;;;;;;;;;5044484;28;20025;-53
2022/03/02 08:09:59;;;;;;;5.70;2.90;;;;;;;;;;5053348;28;20021;-56
2022/03/02 08:12:24;;;;;;;4.13;2.72;;;;;;;;;;5042984;28;20591;-56
2022/03/02 08:14:50;;;;;;;5.65;2.72;;;;;;;;;;5055861;28;20032;-55
2022/03/02 08:17:16;;;;;;;4.55;2.88;;;;;;;;;;5060149;28;20060;-55
2022/03/02 08:19:41;;;;;;;4.97;2.67;;;;;;;;;;5045935;28;20126;-56
2022/03/02 08:22:12;;;;;;;7.10;2.63;;;;;;;;;;5053953;28;20493;-56
2022/03/02 08:24:41;;;;;;;4.95;2.80;;;;;;;;;;5044235;28;20068;-56
2022/03/02 08:27:09;;;;;;;7.00;2.83;;;;;;;;;;5049617;28;20021;-53
2022/03/02 08:29:35;;;;;;;4.30;3.00;;;;;;;;;;5045740;28;20425;-56
2022/03/02 08:32:02;;;;;;;4.03;3.22;;;;;;;;;;5052436;28;20106;-55
2022/03/02 08:34:28;;;;;;;4.80;2.97;;;;;;;;;;5051190;28;20345;-54
2022/03/02 08:36:54;;;;;;;4.63;2.53;;;;;;;;;;5073225;28;20504;-53
2022/03/02 08:39:19;;;;;;;3.58;2.13;;;;;;;;;;5051966;28;20043;-54
2022/03/02 08:41:45;;;;;;;4.43;2.85;;;;;;;;;;5051984;28;20021;-55
2022/03/02 08:44:13;;;;;;;4.28;2.55;;;;;;;;;;5043346;28;20020;-55
2022/03/02 08:46:39;;;;;;;4.07;3.08;;;;;;;;;;5042222;28;20022;-56
2022/03/02 08:49:05;;;;;;;5.15;2.88;;;;;;;;;;5041014;28;20139;-54
2022/03/02 08:51:31;;;;;;;3.63;2.25;;;;;;;;;;5043236;28;20041;-56
2022/03/02 08:53:59;;;;;;;6.57;3.08;;;;;;;;;;5037130;28;20029;-56
2022/03/02 08:56:25;;;;;;;5.43;2.95;;;;;;;;;;5040003;28;20501;-53
2022/03/02 08:58:51;;;;;;;4.10;3.03;;;;;;;;;;5044588;28;20055;-54
2022/03/02 09:01:18;;;;;;;3.05;2.30;;;;;;;;;;5026505;28;20053;-55
2022/03/02 09:03:45;;;;;;;3.40;2.35;;;;;;;;;;5038632;28;20047;-56
2022/03/02 09:06:10;;;;;;;3.42;2.40;;;;;;;;;;5041740;28;20029;-55
2022/03/02 09:08:37;;;;;;;3.13;2.55;;;;;;;;;;5052875;28;20029;-55
2022/03/02 09:11:02;;;;;;;4.30;2.75;;;;;;;;;;5041790;28;20143;-56
2022/03/02 09:13:28;;;;;;;5.70;2.38;;;;;;;;;;5041684;28;20119;-55
2022/03/02 09:15:53;;;;;;;3.58;1.92;;;;;;;;;;5038535;28;20032;-54
2022/03/02 09:18:18;;;;;;;2.90;2.50;;;;;;;;;;5054179;28;20033;-57
2022/03/02 09:20:46;;;;;;;4.50;2.53;;;;;;;;;;5056279;28;20025;-57
2022/03/02 09:23:12;;;;;;;2.88;2.50;;;;;;;;;;5035529;28;20025;-56
2022/03/02 09:25:38;;;;;;;5.13;3.13;;;;;;;;;;5039680;28;20028;-54
2022/03/02 09:28:03;;;;;;;3.30;2.60;;;;;;;;;;5040313;28;20033;-56
2022/03/02 09:30:28;;;;;;;5.45;3.03;;;;;;;;;;5042441;28;20029;-57
2022/03/02 09:32:55;;;;;;;3.22;2.75;;;;;;;;;;5021587;28;20037;-57
2022/03/02 09:35:20;;;;;;;2.50;2.22;;;;;;;;;;5042512;28;20028;-55
2022/03/02 09:37:49;;;;;;;2.90;2.35;;;;;;;;;;5038596;28;20040;-53
2022/03/02 09:40:30;;;;;;;3.30;2.38;;;;;;;;;;5038021;28;20130;-53
2022/03/02 09:43:00;;;;;;;3.83;2.90;;;;;;;;;;5043127;28;20101;-56
2022/03/02 09:45:27;;;;;;;4.53;2.72;;;;;;;;;;5040556;28;20021;-56
2022/03/02 09:47:56;;;;;;;2.95;2.60;;;;;;;;;;5047964;28;20032;-55
2022/03/02 09:50:22;;;;;;;3.83;2.72;;;;;;;;;;5047826;28;20493;-56
2022/03/02 09:52:47;;;;;;;4.15;3.47;;;;;;;;;;5048512;28;20033;-55
2022/03/02 09:55:16;;;;;;;3.13;2.60;;;;;;;;;;5045466;28;20032;-55
2022/03/02 09:57:43;;;;;;;3.33;2.55;;;;;;;;;;5050771;28;20393;-56
2022/03/02 10:00:10;;;;;;;4.20;2.78;;;;;;;;;;5057157;28;20496;-54
2022/03/02 10:02:40;;;;;;;3.55;2.75;;;;;;;;;;5049506;28;20025;-55
2022/03/02 10:05:08;;;;;;;2.88;2.63;;;;;;;;;;5045092;28;20040;-52
2022/03/02 10:07:34;;;;;;;5.00;2.97;;;;;;;;;;5052299;28;20087;-54
2022/03/02 10:10:10;;;;;;;4.00;2.60;;;;;;;;;;5058205;28;20041;-55
2022/03/02 10:12:36;;;;;;;3.42;2.30;;;;;;;;;;5041300;28;20056;-53
2022/03/02 10:15:02;;;;;;;3.75;2.22;;;;;;;;;;5051963;28;20110;-54
2022/03/02 10:17:32;;;;;;;3.72;2.72;;;;;;;;;;5068258;28;20035;-56
2022/03/02 10:20:00;;;;;;;3.10;2.40;;;;;;;;;;5068487;28;20029;-55
2022/03/02 10:22:31;;;;;;;3.13;2.47;;;;;;;;;;5050898;28;20272;-54
2022/03/02 10:25:00;;;;;;;3.75;2.88;;;;;;;;;;5043247;28;20465;-54
2022/03/02 10:27:53;;;;;;;2.63;2.33;;;;;;;;;;5051304;28;20013;-55
2022/03/02 10:30:19;;;;;;;3.92;1.77;;;;;;;;;;5033770;28;20040;-55
2022/03/02 10:32:47;;;;;;;4.05;2.42;;;;;;;;;;5059032;28;20481;-55
2022/03/02 10:35:13;;;;;;;3.67;2.63;;;;;;;;;;5051869;28;20063;-54
2022/03/02 10:37:57;;;;;;;2.55;2.10;;;;;;;;;;5052022;28;20048;-54
2022/03/02 10:40:25;;;;;;;3.05;2.75;;;;;;;;;;5048445;28;20033;-56
2022/03/02 10:43:06;;;;;;;2.78;2.30;;;;;;;;;;5051115;28;20364;-56
2022/03/02 10:45:35;;;;;;;2.85;2.33;;;;;;;;;;5050606;28;20024;-53
2022/03/02 10:48:10;;;;;;;2.58;2.15;;;;;;;;;;5051551;28;20075;-53
2022/03/02 10:50:36;;;;;;;2.45;2.25;;;;;;;;;;5050795;28;20021;-55
2022/03/02 10:53:03;;;;;;;2.40;2.20;;;;;;;;;;5046622;28;21011;-54
2022/03/02 10:55:30;;;;;;;2.78;2.30;;;;;;;;;;5033292;28;22353;-54
2022/03/02 10:57:55;;;;;;;3.83;2.28;;;;;;;;;;5033649;28;20473;-52
2022/03/02 11:00:22;;;;;;;3.25;2.38;;;;;;;;;;5051032;28;20036;-55
2022/03/02 11:02:48;;;;;;;3.20;2.58;;;;;;;;;;5045581;28;20100;-53
2022/03/02 11:05:15;;;;;;;4.05;2.20;;;;;;;;;;5054586;28;20049;-54
2022/03/02 11:07:41;;;;;;;2.38;1.73;;;;;;;;;;5055539;28;20021;-56
2022/03/02 11:10:07;;;;;;;2.80;2.08;;;;;;;;;;5054575;28;20381;-55
2022/03/02 11:12:33;;;;;;;2.05;1.85;;;;;;;;;;5052504;28;20363;-56
2022/03/02 11:15:03;;;;;;;2.35;1.90;;;;;;;;;;5052616;28;20036;-56
2022/03/02 11:17:28;;;;;;;3.20;2.40;;;;;;;;;;5054647;28;20025;-56
2022/03/02 11:19:54;;;;;;;2.63;1.95;;;;;;;;;;5054692;28;20411;-56
2022/03/02 11:22:20;;;;;;;2.25;1.95;;;;;;;;;;5044812;28;20032;-55
2022/03/02 11:24:46;;;;;;;1.80;1.70;;;;;;;;;;5034745;28;20108;-54
2022/03/02 11:27:28;;;;;;;2.92;1.52;;;;;;;;;;5038276;28;21574;-53
2022/03/02 11:30:00;;;;;;;1.60;1.50;;;;;;;;;;5051114;28;20021;-53
2022/03/02 11:32:26;;;;;;;2.42;1.40;;;;;;;;;;5046385;28;20029;-56
2022/03/02 11:34:51;;;;;;;2.58;2.10;;;;;;;;;;5054316;28;20029;-55
2022/03/02 11:37:17;;;;;;;1.55;1.45;;;;;;;;;;5054974;28;20492;-55
2022/03/02 11:39:43;;;;;;;1.45;1.27;;;;;;;;;;5036105;28;20036;-53
2022/03/02 11:42:09;;;;;;;2.97;1.20;;;;;;;;;;5044557;28;20027;-56
2022/03/02 11:44:37;;;;;;;3.15;1.63;;;;;;;;;;5049165;28;20493;-55
2022/03/02 11:47:10;;;;;;;2.33;1.40;;;;;;;;;;5058149;28;20021;-57
2022/03/02 11:49:38;;;;;;;3.00;1.38;;;;;;;;;;5059915;28;20494;-55
2022/03/02 11:52:06;;;;;;;2.45;2.00;;;;;;;;;;5053967;28;20051;-54
2022/03/02 11:54:51;;;;;;;2.28;1.80;;;;;;;;;;5050853;28;20104;-53
2022/03/02 11:57:17;;;;;;;3.15;2.22;;;;;;;;;;5054132;28;20421;-54
2022/03/02 11:59:43;;;;;;;2.40;1.92;;;;;;;;;;5045698;28;20040;-55
2022/03/02 12:02:11;;;;;;;3.67;2.08;;;;;;;;;;5058960;28;20037;-52
2022/03/02 12:04:37;;;;;;;3.40;1.50;;;;;;;;;;5043306;28;20447;-55
2022/03/02 12:07:03;;;;;;;2.00;1.23;;;;;;;;;;5073419;28;20017;-55
2022/03/02 12:09:29;;;;;;;3.42;1.67;;;;;;;;;;5055614;28;20029;-55
2022/03/02 12:12:09;;;;;;;2.20;1.58;;;;;;;;;;5053835;28;20086;-55
2022/03/02 12:14:48;;;;;;;2.17;1.58;;;;;;;;;;5054002;28;20033;-51
2022/03/02 12:17:15;;;;;;;2.92;1.77;;;;;;;;;;5034458;28;20022;-56
2022/03/02 12:19:40;;;;;;;2.35;1.50;;;;;;;;;;5046458;28;20028;-53
2022/03/02 12:22:06;;;;;;;1.85;1.00;;;;;;;;;;5052779;28;20024;-54
2022/03/02 12:24:33;;;;;;;1.55;1.25;;;;;;;;;;5029589;28;20018;-55
2022/03/02 12:27:01;;;;;;;1.40;1.08;;;;;;;;;;5033737;28;20029;-55
2022/03/02 12:29:26;;;;;;;4.68;1.90;;;;;;;;;;5042421;28;20275;-54
2022/03/02 12:32:02;;;;;;;1.60;1.20;;;;;;;;;;5051295;28;20032;-54
2022/03/02 12:34:28;;;;;;;2.25;1.48;;;;;;;;;;5047260;28;20043;-56
2022/03/02 12:36:53;;;;;;;2.58;1.25;;;;;;;;;;5054143;28;20539;-56
2022/03/02 12:39:18;;;;;;;1.60;1.02;;;;;;;;;;5053101;28;20024;-54
2022/03/02 12:41:44;;;;;;;1.50;0.95;;;;;;;;;;5049400;28;20067;-56
2022/03/02 12:44:09;;;;;;;2.50;1.17;;;;;;;;;;5053677;28;20025;-56
2022/03/02 12:46:35;;;;;;;1.60;0.95;;;;;;;;;;5052739;28;20500;-53
2022/03/02 12:49:01;;;;;;;1.50;0.85;;;;;;;;;;5059461;28;20036;-55
2022/03/02 12:51:27;;;;;;;1.92;0.80;;;;;;;;;;5063454;28;20025;-56
2022/03/02 12:53:53;;;;;;;1.23;0.77;;;;;;;;;;5045546;28;21217;-57
2022/03/02 12:56:18;;;;;;;2.30;1.05;;;;;;;;;;5047503;28;20079;-52
2022/03/02 12:58:44;;;;;;;1.65;1.10;;;;;;;;;;5054283;28;20021;-55
2022/03/02 13:01:09;;;;;;;1.65;0.88;;;;;;;;;;5053004;28;20104;-54
2022/03/02 13:03:36;;;;;;;1.85;1.63;;;;;;;;;;5052515;28;20048;-56
2022/03/02 13:06:03;;;;;;;2.40;1.10;;;;;;;;;;5052426;28;20024;-55
2022/03/02 13:08:30;;;;;;;1.75;1.00;;;;;;;;;;5052265;28;20062;-55
2022/03/02 13:10:55;;;;;;;1.65;0.90;;;;;;;;;;5056009;28;20028;-55
2022/03/02 13:13:36;;;;;;;1.67;0.90;;;;;;;;;;5051277;28;20020;-55
2022/03/02 13:16:18;;;;;;;1.45;1.35;;;;;;;;;;5052271;28;20029;-56
2022/03/02 13:18:43;;;;;;;1.48;1.27;;;;;;;;;;5049639;28;20032;-54
2022/03/02 13:21:16;;;;;;;1.27;0.90;;;;;;;;;;5054395;28;20019;-54
2022/03/02 13:23:59;;;;;;;1.10;1.00;;;;;;;;;;5037019;28;20028;-51
2022/03/02 13:26:25;;;;;;;2.42;1.60;;;;;;;;;;5046455;28;20028;-55
2022/03/02 13:29:02;;;;;;;2.38;1.52;;;;;;;;;;5039118;28;20037;-54
2022/03/02 13:31:28;;;;;;;1.83;1.33;;;;;;;;;;5049320;28;20500;-55
2022/03/02 13:33:55;;;;;;;1.80;1.30;;;;;;;;;;5055645;28;20029;-56
2022/03/02 13:36:39;;;;;;;1.15;0.90;;;;;;;;;;5057055;28;20401;-54
2022/03/02 13:39:10;;;;;;;1.52;1.30;;;;;;;;;;5046048;28;20528;-53
2022/03/02 13:41:40;;;;;;;1.67;1.00;;;;;;;;;;5048333;28;20075;-54
2022/03/02 13:44:21;;;;;;;1.50;1.40;;;;;;;;;;5058482;28;20025;-55
2022/03/02 13:47:06;;;;;;;1.60;1.13;;;;;;;;;;5052619;28;20013;-55
2022/03/02 13:49:53;;;;;;;1.48;1.05;;;;;;;;;;5051639;28;20031;-54
2022/03/02 13:52:20;;;;;;;1.23;1.00;;;;;;;;;;5050873;28;20075;-55
2022/03/02 13:54:45;;;;;;;1.65;0.98;;;;;;;;;;5019567;28;20052;-53
2022/03/02 13:57:24;;;;;;;0.93;0.70;;;;;;;;;;5032209;28;20423;-55
2022/03/02 14:00:09;;;;;;;1.02;0.70;;;;;;;;;;5045553;28;20389;-55
2022/03/02 14:02:35;;;;;;;0.80;0.77;;;;;;;;;;5033501;28;20485;-53
2022/03/02 14:05:00;;;;;;;1.25;0.70;;;;;;;;;;5044852;28;20053;-53
2022/03/02 14:07:27;;;;;;;0.87;0.73;;;;;;;;;;5044712;28;20029;-57
2022/03/02 14:10:08;;;;;;;1.75;0.88;;;;;;;;;;5051371;28;20274;-54
2022/03/02 14:12:33;;;;;;;1.00;0.90;;;;;;;;;;5033190;28;20096;-56
2022/03/02 14:15:11;;;;;;;1.98;1.02;;;;;;;;;;5046705;28;20548;-56
2022/03/02 14:17:36;;;;;;;0.93;0.80;;;;;;;;;;5052112;28;20021;-56
2022/03/02 14:20:01;;;;;;;0.90;0.70;;;;;;;;;;5051442;28;20079;-54
2022/03/02 14:22:26;;;;;;;2.88;0.73;;;;;;;;;;5051014;28;20318;-57
2022/03/02 14:24:52;;;;;;;0.93;0.60;;;;;;;;;;5049165;28;20104;-56
2022/03/02 14:27:17;;;;;;;1.42;0.90;;;;;;;;;;5037367;28;20052;-54
2022/03/02 14:29:53;;;;;;;0.73;0.52;;;;;;;;;;5037361;28;20067;-56
2022/03/02 14:32:28;;;;;;;0.75;0.75;;;;;;;;;;5049583;28;20029;-56
2022/03/02 14:34:55;;;;;;;1.10;0.85;;;;;;;;;;5049496;28;20013;-55
2022/03/02 14:37:27;;;;;;;0.93;0.68;;;;;;;;;;5039151;28;20061;-56
2022/03/02 14:39:56;;;;;;;1.60;0.90;;;;;;;;;;5034351;28;20024;-55
2022/03/02 14:42:21;;;;;;;1.40;1.30;;;;;;;;;;5033191;28;20036;-55
2022/03/02 14:45:03;;;;;;;1.35;1.00;;;;;;;;;;5042325;28;20378;-55